createdAt,value
2018-11-07T00:00:31.059Z,20.52
2018-11-07T00:02:59.322Z,20.07
2018-11-07T00:05:26.821Z,20.17
2018-11-07T00:07:54.685Z,20.23
2018-11-07T00:10:22.362Z,20.20
2018-11-07T00:12:49.843Z,19.75
2018-11-07T00:15:19.011Z,19.94
2018-11-07T00:17:46.587Z,19.87
2018-11-07T00:20:14.547Z,19.93
2018-11-07T00:22:41.972Z,20.09
2018-11-07T00:25:10.700Z,20.20
2018-11-07T00:27:39.525Z,20.08
2018-11-07T00:30:07.906Z,20.08
2018-11-07T00:32:35.842Z,20.15
2018-11-07T00:35:04.230Z,19.80
2018-11-07T00:37:31.623Z,20.02
2018-11-07T00:40:02.257Z,20.07
2018-11-07T00:42:29.881Z,19.94
2018-11-07T00:44:57.881Z,20.12
2018-11-07T00:47:25.697Z,19.88
2018-11-07T00:49:53.171Z,20.13
2018-11-07T00:52:21.260Z,20.21
2018-11-07T00:54:48.724Z,20.32
2018-11-07T00:57:16.755Z,20.40
2018-11-07T00:59:44.935Z,20.44
2018-11-07T01:02:12.546Z,20.48
2018-11-07T01:04:41.611Z,20.40
2018-11-07T01:07:09.358Z,20.46
2018-11-07T01:09:37.866Z,20.52
2018-11-07T01:12:05.472Z,20.50
2018-11-07T01:14:33.000Z,20.49
2018-11-07T01:17:01.400Z,20.50
2018-11-07T01:19:28.960Z,20.46
2018-11-07T01:21:57.129Z,20.46
2018-11-07T01:24:24.698Z,20.45
2018-11-07T01:26:52.361Z,20.43
2018-11-07T01:29:21.561Z,20.44
2018-11-07T01:31:49.076Z,20.41
2018-11-07T01:34:16.857Z,20.34
2018-11-07T01:36:44.398Z,20.33
2018-11-07T01:39:11.892Z,20.26
2018-11-07T01:41:40.284Z,20.23
2018-11-07T01:44:08.525Z,20.21
2018-11-07T01:46:36.377Z,20.17
2018-11-07T01:49:04.047Z,20.13
2018-11-07T01:51:32.429Z,20.05
2018-11-07T01:54:02.777Z,20.02
2018-11-07T01:56:30.320Z,19.98
2018-11-07T02:00:28.041Z,19.57
2018-11-07T02:02:55.592Z,19.44
2018-11-07T02:05:23.630Z,19.45
2018-11-07T02:07:51.801Z,19.57
2018-11-07T02:10:19.334Z,19.45
2018-11-07T02:12:47.205Z,19.39
2018-11-07T02:15:15.223Z,19.20
2018-11-07T02:17:43.692Z,19.39
2018-11-07T02:20:11.705Z,19.56
2018-11-07T02:22:39.408Z,19.64
2018-11-07T02:25:07.810Z,19.66
2018-11-07T02:27:35.314Z,19.72
2018-11-07T02:30:03.819Z,19.78
2018-11-07T02:32:31.210Z,19.78
2018-11-07T02:34:58.715Z,19.81
2018-11-07T02:37:26.625Z,19.88
2018-11-07T02:39:54.650Z,19.69
2018-11-07T02:42:24.177Z,19.78
2018-11-07T02:44:51.758Z,19.84
2018-11-07T02:47:19.356Z,19.54
2018-11-07T02:49:47.286Z,19.55
2018-11-07T02:52:15.777Z,19.64
2018-11-07T02:54:43.770Z,19.18
2018-11-07T02:57:11.316Z,19.33
2018-11-07T02:59:38.779Z,19.45
2018-11-07T03:02:06.701Z,19.56
2018-11-07T03:04:34.177Z,19.56
2018-11-07T03:07:03.055Z,19.53
2018-11-07T03:09:30.617Z,19.61
2018-11-07T03:11:58.052Z,19.62
2018-11-07T03:14:26.153Z,19.62
2018-11-07T03:16:53.709Z,19.53
2018-11-07T03:19:21.663Z,19.56
2018-11-07T03:21:49.271Z,19.55
2018-11-07T03:24:16.696Z,19.59
2018-11-07T03:26:44.593Z,19.60
2018-11-07T03:29:13.445Z,19.60
2018-11-07T03:31:42.594Z,19.39
2018-11-07T03:34:10.048Z,19.39
2018-11-07T03:36:38.271Z,19.32
2018-11-07T03:39:08.935Z,19.27
2018-11-07T03:41:36.801Z,18.98
2018-11-07T03:44:05.895Z,19.08
2018-11-07T03:46:33.461Z,18.97
2018-11-07T03:49:01.226Z,18.83
2018-11-07T03:51:29.749Z,18.90
2018-11-07T03:53:57.273Z,18.93
2018-11-07T03:56:26.587Z,18.65
2018-11-07T03:58:54.189Z,18.77
2018-11-07T04:01:22.742Z,18.83
2018-11-07T04:03:50.796Z,18.60
2018-11-07T04:06:19.381Z,18.81
2018-11-07T04:08:47.590Z,18.63
2018-11-07T04:11:15.133Z,18.61
2018-11-07T04:13:42.707Z,18.64
2018-11-07T04:16:10.584Z,17.78
2018-11-07T04:18:38.149Z,17.94
2018-11-07T04:21:07.531Z,18.13
2018-11-07T04:23:35.320Z,18.40
2018-11-07T04:26:03.003Z,18.42
2018-11-07T04:28:32.272Z,18.53
2018-11-07T04:30:59.722Z,18.22
2018-11-07T04:33:27.690Z,17.93
2018-11-07T04:35:55.317Z,17.87
2018-11-07T04:38:22.918Z,18.15
2018-11-07T04:40:51.092Z,18.19
2018-11-07T04:43:18.825Z,17.24
2018-11-07T04:45:47.651Z,17.71
2018-11-07T04:48:15.131Z,18.02
2018-11-07T04:50:42.771Z,17.69
2018-11-07T04:53:10.616Z,17.96
2018-11-07T04:55:38.112Z,18.02
2018-11-07T04:58:06.387Z,18.18
2018-11-07T05:00:33.838Z,18.33
2018-11-07T05:03:01.298Z,17.44
2018-11-07T05:05:29.840Z,17.90
2018-11-07T05:07:57.342Z,18.19
2018-11-07T05:10:25.938Z,18.24
2018-11-07T05:12:53.864Z,18.38
2018-11-07T05:15:21.409Z,18.40
2018-11-07T05:17:49.406Z,18.42
2018-11-07T05:20:16.990Z,17.62
2018-11-07T05:22:45.224Z,17.21
2018-11-07T05:25:12.723Z,17.62
2018-11-07T05:27:41.309Z,17.37
2018-11-07T05:30:10.118Z,17.66
2018-11-07T05:32:37.670Z,17.82
2018-11-07T05:35:07.034Z,17.96
2018-11-07T05:37:34.626Z,17.96
2018-11-07T05:40:02.210Z,17.84
2018-11-07T05:42:30.088Z,17.48
2018-11-07T05:44:58.228Z,17.61
2018-11-07T05:47:26.204Z,17.58
2018-11-07T05:49:53.700Z,17.71
2018-11-07T05:52:21.294Z,17.72
2018-11-07T05:54:49.144Z,17.83
2018-11-07T05:57:16.713Z,17.35
2018-11-07T05:59:45.862Z,16.77
2018-11-07T06:02:13.301Z,17.42
2018-11-07T06:04:41.391Z,17.11
2018-11-07T06:07:09.465Z,17.54
2018-11-07T06:09:36.945Z,17.55
2018-11-07T06:12:05.339Z,17.57
2018-11-07T06:14:32.968Z,17.51
2018-11-07T06:17:00.438Z,17.62
2018-11-07T06:19:28.591Z,17.68
2018-11-07T06:21:56.061Z,17.41
2018-11-07T06:24:25.183Z,17.45
2018-11-07T06:26:52.688Z,17.26
2018-11-07T06:29:20.171Z,17.31
2018-11-07T06:31:47.945Z,17.25
2018-11-07T06:34:15.874Z,17.59
2018-11-07T06:36:43.783Z,17.48
2018-11-07T06:42:17.323Z,17.68
2018-11-07T06:44:44.938Z,17.27
2018-11-07T06:47:14.773Z,17.68
2018-11-07T06:49:42.364Z,17.43
2018-11-07T06:52:10.019Z,17.38
2018-11-07T06:54:37.962Z,16.96
2018-11-07T06:57:05.493Z,16.73
2018-11-07T06:59:33.418Z,16.78
2018-11-07T07:02:00.902Z,16.94
2018-11-07T07:04:28.475Z,17.36
2018-11-07T07:06:56.519Z,17.26
2018-11-07T07:09:23.991Z,17.23
2018-11-07T07:11:52.424Z,17.68
2018-11-07T07:14:19.929Z,17.76
2018-11-07T07:16:47.615Z,17.61
2018-11-07T07:19:16.853Z,17.89
2018-11-07T07:21:44.354Z,17.59
2018-11-07T07:24:12.357Z,17.95
2018-11-07T07:26:39.913Z,18.22
2018-11-07T07:29:07.377Z,18.37
2018-11-07T07:31:35.377Z,18.13
2018-11-07T07:34:02.895Z,18.33
2018-11-07T07:36:32.148Z,18.31
2018-11-07T07:38:59.734Z,18.46
2018-11-07T07:41:28.445Z,18.55
2018-11-07T07:43:56.456Z,18.28
2018-11-07T07:46:24.061Z,18.25
2018-11-07T07:48:52.339Z,18.53
2018-11-07T07:51:20.016Z,18.66
2018-11-07T07:53:47.706Z,18.69
2018-11-07T07:56:15.892Z,18.64
2018-11-07T07:58:44.425Z,18.45
2018-11-07T08:01:12.427Z,18.08
2018-11-07T08:03:40.278Z,18.18
2018-11-07T08:06:07.865Z,18.44
2018-11-07T08:08:35.758Z,17.92
2018-11-07T08:11:03.381Z,17.71
2018-11-07T08:13:31.373Z,18.06
2018-11-07T08:15:58.860Z,17.94
2018-11-07T08:18:27.542Z,17.21
2018-11-07T08:20:55.477Z,17.75
2018-11-07T08:23:22.893Z,17.97
2018-11-07T08:25:50.800Z,18.14
2018-11-07T08:28:18.318Z,18.20
2018-11-07T08:30:45.894Z,18.04
2018-11-07T08:33:15.099Z,18.01
2018-11-07T08:35:42.513Z,17.95
2018-11-07T08:38:11.705Z,18.25
2018-11-07T08:42:08.769Z,17.23
2018-11-07T08:44:36.670Z,17.79
2018-11-07T08:47:04.322Z,17.79
2018-11-07T08:49:33.689Z,18.03
2018-11-07T08:52:01.262Z,17.96
2018-11-07T08:57:20.326Z,18.12
2018-11-07T08:59:49.019Z,18.26
2018-11-07T09:02:16.730Z,18.25
2018-11-07T09:04:44.482Z,17.64
2018-11-07T09:07:12.688Z,17.91
2018-11-07T09:09:40.718Z,18.22
2018-11-07T09:12:08.758Z,18.65
2018-11-07T09:14:36.214Z,18.72
2018-11-07T09:17:03.770Z,18.70
2018-11-07T09:19:32.785Z,18.68
2018-11-07T09:22:00.448Z,19.07
2018-11-07T09:24:28.449Z,19.09
2018-11-07T09:26:55.926Z,19.20
2018-11-07T09:29:23.527Z,19.31
2018-11-07T09:31:52.309Z,18.90
2018-11-07T09:34:19.939Z,19.65
2018-11-07T09:36:49.324Z,19.73
2018-11-07T09:39:16.808Z,20.01
2018-11-07T09:41:44.373Z,20.17
2018-11-07T09:44:12.286Z,20.17
2018-11-07T09:46:39.765Z,19.91
2018-11-07T09:49:07.713Z,19.75
2018-11-07T09:51:35.203Z,20.17
2018-11-07T09:54:02.884Z,20.53
2018-11-07T09:56:30.826Z,20.96
2018-11-07T09:58:59.839Z,20.47
2018-11-07T10:01:27.522Z,19.60
2018-11-07T10:03:55.078Z,20.44
2018-11-07T10:06:22.586Z,19.82
2018-11-07T10:08:51.474Z,19.34
2018-11-07T10:11:20.268Z,20.01
2018-11-07T10:13:48.301Z,20.61
2018-11-07T10:16:16.846Z,20.91
2018-11-07T10:18:44.306Z,21.00
2018-11-07T10:21:13.727Z,20.64
2018-11-07T10:23:42.617Z,20.70
2018-11-07T10:26:12.171Z,21.36
2018-11-07T10:28:40.271Z,21.77
2018-11-07T10:31:08.337Z,21.62
2018-11-07T10:33:36.432Z,21.42
2018-11-07T10:36:04.761Z,21.85
2018-11-07T10:38:34.623Z,22.36
2018-11-07T10:41:02.203Z,21.86
2018-11-07T10:43:29.686Z,21.71
2018-11-07T10:45:57.240Z,21.69
2018-11-07T10:51:15.560Z,22.38
2018-11-07T10:53:43.138Z,22.86
2018-11-07T10:56:10.649Z,23.43
2018-11-07T10:58:38.282Z,23.87
2018-11-07T11:01:15.893Z,24.25
2018-11-07T11:03:45.459Z,24.42
2018-11-07T11:06:13.573Z,24.62
2018-11-07T11:08:41.814Z,24.91
2018-11-07T11:11:10.840Z,24.88
2018-11-07T11:13:38.885Z,24.37
2018-11-07T11:16:06.424Z,23.60
2018-11-07T11:18:34.018Z,23.34
2018-11-07T11:21:01.622Z,23.36
2018-11-07T11:23:31.206Z,23.56
2018-11-07T11:26:00.233Z,22.71
2018-11-07T11:28:27.665Z,23.24
2018-11-07T11:30:55.226Z,23.47
2018-11-07T11:33:22.856Z,22.67
2018-11-07T11:35:51.258Z,23.20
2018-11-07T11:38:18.777Z,23.51
2018-11-07T11:40:46.313Z,23.68
2018-11-07T11:43:13.747Z,23.37
2018-11-07T11:45:42.316Z,23.53
2018-11-07T11:48:13.445Z,23.73
2018-11-07T11:50:41.033Z,23.91
2018-11-07T11:53:09.071Z,24.02
2018-11-07T11:55:37.473Z,23.71
2018-11-07T11:58:05.263Z,23.68
2018-11-07T12:00:33.974Z,22.40
2018-11-07T12:03:02.048Z,21.66
2018-11-07T12:05:29.584Z,22.45
2018-11-07T12:07:57.241Z,21.93
2018-11-07T12:10:25.558Z,22.25
2018-11-07T12:12:56.565Z,22.33
2018-11-07T12:15:25.580Z,23.02
2018-11-07T12:17:53.581Z,23.27
2018-11-07T12:20:21.214Z,23.06
2018-11-07T12:22:49.056Z,22.78
2018-11-07T12:25:19.564Z,23.20
2018-11-07T12:27:47.389Z,23.08
2018-11-07T12:30:18.272Z,22.95
2018-11-07T12:32:47.137Z,23.03
2018-11-07T12:35:15.899Z,22.74
2018-11-07T12:37:45.325Z,22.82
2018-11-07T12:40:13.376Z,22.47
2018-11-07T12:42:40.967Z,23.22
2018-11-07T12:45:09.838Z,23.33
2018-11-07T12:47:37.822Z,23.57
2018-11-07T12:50:09.381Z,23.72
2018-11-07T12:52:36.751Z,23.52
2018-11-07T12:55:05.526Z,23.56
2018-11-07T12:57:33.312Z,23.10
2018-11-07T13:00:01.212Z,23.05
2018-11-07T13:02:30.588Z,22.44
2018-11-07T13:04:58.556Z,22.50
2018-11-07T13:07:26.054Z,22.71
2018-11-07T13:09:53.575Z,22.21
2018-11-07T13:12:21.773Z,22.24
2018-11-07T13:14:50.217Z,21.64
2018-11-07T13:17:17.801Z,22.07
2018-11-07T13:21:14.747Z,21.95
2018-11-07T13:23:42.689Z,22.44
2018-11-07T13:26:12.667Z,22.64
2018-11-07T13:28:40.213Z,22.73
2018-11-07T13:31:07.797Z,22.91
2018-11-07T13:33:35.434Z,22.82
2018-11-07T13:36:03.001Z,23.23
2018-11-07T13:38:31.930Z,23.43
2018-11-07T13:40:58.984Z,23.21
2018-11-07T13:43:26.492Z,23.39
2018-11-07T13:45:55.388Z,23.44
2018-11-07T13:48:22.724Z,23.28
2018-11-07T13:51:07.360Z,23.53
2018-11-07T13:53:34.816Z,23.56
2018-11-07T13:56:02.334Z,23.43
2018-11-07T13:58:29.873Z,23.07
2018-11-07T14:00:58.259Z,23.08
2018-11-07T14:03:26.148Z,23.04
2018-11-07T14:05:53.750Z,22.94
2018-11-07T14:08:21.202Z,23.00
2018-11-07T14:10:48.737Z,23.24
2018-11-07T14:13:17.682Z,23.18
2018-11-07T14:15:45.625Z,23.29
2018-11-07T14:18:13.848Z,22.59
2018-11-07T14:20:41.894Z,22.75
2018-11-07T14:23:09.366Z,22.86
2018-11-07T14:25:37.837Z,23.22
2018-11-07T14:28:06.645Z,23.18
2018-11-07T14:30:33.942Z,23.34
2018-11-07T14:33:01.819Z,22.49
2018-11-07T14:35:29.382Z,22.89
2018-11-07T14:37:58.816Z,22.08
2018-11-07T14:40:26.345Z,22.79
2018-11-07T14:42:55.269Z,22.99
2018-11-07T14:45:22.696Z,23.18
2018-11-07T14:47:50.204Z,23.23
2018-11-07T14:50:18.620Z,23.25
2018-11-07T14:52:46.063Z,23.45
2018-11-07T14:55:13.697Z,23.42
2018-11-07T14:57:41.393Z,23.34
2018-11-07T15:00:12.135Z,23.26
2018-11-07T15:02:42.714Z,23.40
2018-11-07T15:05:11.497Z,23.37
2018-11-07T15:07:39.599Z,23.55
2018-11-07T15:10:08.464Z,23.65
2018-11-07T15:12:36.092Z,23.52
2018-11-07T15:15:04.854Z,23.58
2018-11-07T15:17:34.054Z,23.64
2018-11-07T15:20:01.748Z,23.66
2018-11-07T15:22:29.243Z,23.68
2018-11-07T15:24:57.004Z,23.57
2018-11-07T15:27:26.273Z,23.61
2018-11-07T15:29:53.971Z,23.63
2018-11-07T15:32:21.641Z,23.72
2018-11-07T15:34:49.199Z,23.64
2018-11-07T15:37:17.637Z,23.64
2018-11-07T15:39:47.799Z,23.66
2018-11-07T15:42:15.281Z,23.61
2018-11-07T15:44:42.713Z,23.60
2018-11-07T15:47:10.210Z,23.55
2018-11-07T15:49:42.077Z,23.53
2018-11-07T15:52:11.883Z,23.46
2018-11-07T15:54:39.311Z,23.44
2018-11-07T15:57:06.767Z,23.38
2018-11-07T15:59:34.282Z,22.69
2018-11-07T16:02:02.419Z,22.88
2018-11-07T16:04:31.109Z,22.21
2018-11-07T16:06:58.830Z,22.54
2018-11-07T16:09:26.355Z,22.04
2018-11-07T16:11:53.939Z,22.38
2018-11-07T16:14:23.753Z,21.71
2018-11-07T16:16:53.100Z,22.18
2018-11-07T16:19:20.650Z,22.13
2018-11-07T16:21:48.282Z,22.45
2018-11-07T16:24:15.797Z,22.62
2018-11-07T16:26:43.346Z,22.63
2018-11-07T16:29:11.965Z,22.39
2018-11-07T16:31:39.907Z,22.31
2018-11-07T16:34:07.441Z,22.05
2018-11-07T16:36:35.107Z,20.65
2018-11-07T16:39:03.412Z,21.32
2018-11-07T16:41:32.621Z,21.77
2018-11-07T16:44:00.070Z,22.05
2018-11-07T16:46:27.761Z,22.15
2018-11-07T16:48:55.258Z,21.05
2018-11-07T16:51:23.717Z,20.75
2018-11-07T16:53:52.159Z,20.51
2018-11-07T16:56:19.640Z,21.24
2018-11-07T16:58:47.137Z,21.59
2018-11-07T17:01:14.593Z,21.57
2018-11-07T17:03:42.172Z,22.08
2018-11-07T17:06:11.876Z,22.10
2018-11-07T17:08:39.345Z,22.24
2018-11-07T17:11:06.748Z,21.94
2018-11-07T17:13:34.353Z,22.26
2018-11-07T17:16:01.770Z,21.19
2018-11-07T17:18:30.178Z,20.64
2018-11-07T17:20:57.934Z,21.00
2018-11-07T17:23:25.510Z,21.60
2018-11-07T17:25:53.042Z,20.63
2018-11-07T17:28:21.424Z,20.36
2018-11-07T17:30:51.130Z,19.49
2018-11-07T17:33:18.833Z,19.53
2018-11-07T17:35:46.461Z,20.16
2018-11-07T17:38:13.888Z,20.89
2018-11-07T17:40:41.345Z,20.48
2018-11-07T17:43:09.980Z,20.07
2018-11-07T17:45:37.447Z,20.02
2018-11-07T17:48:05.017Z,20.50
2018-11-07T17:50:32.599Z,19.96
2018-11-07T17:53:00.052Z,20.51
2018-11-07T17:55:28.897Z,19.72
2018-11-07T17:57:56.535Z,19.49
2018-11-07T18:00:29.475Z,20.18
2018-11-07T18:02:58.160Z,20.16
2018-11-07T18:05:25.619Z,20.37
2018-11-07T18:07:54.228Z,20.05
2018-11-07T18:10:21.914Z,19.62
2018-11-07T18:12:49.507Z,19.14
2018-11-07T18:15:16.964Z,19.57
2018-11-07T18:17:44.629Z,19.75
2018-11-07T18:20:15.312Z,20.14
2018-11-07T18:22:42.851Z,20.46
2018-11-07T18:25:11.577Z,20.15
2018-11-07T18:27:39.617Z,20.47
2018-11-07T18:30:08.526Z,20.23
2018-11-07T18:32:36.974Z,20.71
2018-11-07T18:35:05.859Z,21.09
2018-11-07T18:37:33.260Z,20.80
2018-11-07T18:40:03.450Z,20.60
2018-11-07T18:42:30.940Z,20.92
2018-11-07T18:44:59.263Z,20.64
2018-11-07T18:47:26.826Z,21.07
2018-11-07T18:49:54.507Z,20.74
2018-11-07T18:52:21.947Z,20.80
2018-11-07T18:54:49.424Z,21.08
2018-11-07T18:57:18.910Z,21.11
2018-11-07T18:59:47.190Z,21.46
2018-11-07T19:02:15.983Z,21.72
2018-11-07T19:04:43.575Z,20.61
2018-11-07T19:07:11.209Z,21.22
2018-11-07T19:09:39.641Z,21.26
2018-11-07T19:12:07.205Z,21.66
2018-11-07T19:14:34.659Z,21.46
2018-11-07T19:17:02.345Z,21.72
2018-11-07T19:19:29.896Z,21.54
2018-11-07T19:21:59.445Z,21.68
2018-11-07T19:24:27.160Z,21.34
2018-11-07T19:26:54.879Z,21.34
2018-11-07T19:29:22.543Z,21.10
2018-11-07T19:31:50.100Z,21.05
2018-11-07T19:34:18.938Z,20.55
2018-11-07T19:36:46.924Z,20.56
2018-11-07T19:39:16.070Z,20.43
2018-11-07T19:41:45.308Z,20.87
2018-11-07T19:44:12.914Z,21.23
2018-11-07T19:46:42.329Z,21.52
2018-11-07T19:49:09.817Z,21.24
2018-11-07T19:51:37.356Z,21.36
2018-11-07T19:54:04.940Z,20.84
2018-11-07T19:56:32.476Z,21.03
2018-11-07T19:59:02.177Z,20.21
2018-11-07T20:01:29.714Z,20.76
2018-11-07T20:03:57.294Z,21.08
2018-11-07T20:06:25.816Z,20.75
2018-11-07T20:08:53.397Z,20.51
2018-11-07T20:11:21.916Z,20.09
2018-11-07T20:13:49.407Z,20.66
2018-11-07T20:16:17.023Z,20.44
2018-11-07T20:18:44.996Z,20.39
2018-11-07T20:21:12.675Z,20.95
2018-11-07T20:23:42.051Z,19.85
2018-11-07T20:26:09.467Z,20.37
2018-11-07T20:28:37.005Z,19.55
2018-11-07T20:31:04.967Z,20.08
2018-11-07T20:33:32.481Z,20.40
2018-11-07T20:36:00.953Z,20.53
2018-11-07T20:38:28.791Z,19.99
2018-11-07T20:40:58.095Z,20.61
2018-11-07T20:43:25.659Z,21.00
2018-11-07T20:45:53.242Z,21.05
2018-11-07T20:48:21.183Z,21.14
2018-11-07T20:50:48.751Z,21.06
2018-11-07T20:53:16.755Z,21.00
2018-11-07T20:55:44.225Z,21.19
2018-11-07T20:58:12.717Z,21.29
2018-11-07T21:00:41.236Z,21.31
2018-11-07T21:03:08.811Z,21.15
2018-11-07T21:05:36.880Z,21.26
2018-11-07T21:08:04.509Z,21.33
2018-11-07T21:10:31.998Z,21.02
2018-11-07T21:12:59.899Z,21.21
2018-11-07T21:15:27.686Z,21.37
2018-11-07T21:17:55.806Z,21.21
2018-11-07T21:20:23.900Z,21.12
2018-11-07T21:22:51.356Z,21.00
2018-11-07T21:25:20.271Z,20.83
2018-11-07T21:27:47.893Z,21.10
2018-11-07T21:30:17.165Z,21.37
2018-11-07T21:32:44.733Z,20.91
2018-11-07T21:35:12.249Z,21.02
2018-11-07T21:37:40.591Z,21.16
2018-11-07T21:40:09.898Z,20.89
2018-11-07T21:42:38.242Z,20.85
2018-11-07T21:45:07.802Z,20.95
2018-11-07T21:47:35.250Z,21.20
2018-11-07T21:50:05.614Z,21.25
2018-11-07T21:52:33.164Z,21.15
2018-11-07T21:55:01.096Z,21.23
2018-11-07T21:57:28.624Z,20.93
2018-11-07T21:59:56.436Z,20.91
2018-11-07T22:02:24.417Z,20.98
2018-11-07T22:04:52.220Z,21.34
2018-11-07T22:07:20.743Z,21.31
2018-11-07T22:09:48.202Z,21.37
2018-11-07T22:15:14.892Z,21.24
2018-11-07T22:17:42.793Z,21.30
2018-11-07T22:20:12.956Z,21.23
2018-11-07T22:22:41.960Z,21.39
2018-11-07T22:25:09.428Z,21.18
2018-11-07T22:27:37.418Z,21.27
2018-11-07T22:30:06.827Z,21.32
2018-11-07T22:32:34.261Z,21.49
2018-11-07T22:35:01.729Z,21.42
2018-11-07T22:37:29.285Z,21.24
2018-11-07T22:39:58.500Z,20.35
2018-11-07T22:42:26.972Z,20.79
2018-11-07T22:44:56.000Z,20.89
2018-11-07T22:47:23.510Z,20.76
2018-11-07T22:49:51.055Z,20.30
2018-11-07T22:52:19.045Z,20.81
2018-11-07T22:54:46.954Z,20.75
2018-11-07T22:57:14.571Z,20.67
2018-11-07T22:59:42.251Z,20.73
2018-11-07T23:02:09.755Z,20.93
2018-11-07T23:04:38.344Z,20.98
2018-11-07T23:07:06.487Z,20.57
2018-11-07T23:09:34.025Z,20.11
2018-11-07T23:12:01.485Z,20.56
2018-11-07T23:14:29.038Z,20.50
2018-11-07T23:16:57.175Z,20.57
2018-11-07T23:19:25.199Z,20.12
2018-11-07T23:21:53.554Z,20.46
2018-11-07T23:24:21.194Z,20.69
2018-11-07T23:26:48.682Z,20.44
2018-11-07T23:29:17.324Z,19.93
2018-11-07T23:31:45.228Z,20.10
2018-11-07T23:34:12.832Z,20.41
2018-11-07T23:36:40.418Z,20.79
2018-11-07T23:39:08.878Z,20.78
2018-11-07T23:41:36.915Z,20.94
2018-11-07T23:44:05.809Z,20.93
2018-11-07T23:46:33.249Z,20.68
2018-11-07T23:49:00.771Z,20.03
2018-11-07T23:51:28.233Z,20.40
2018-11-07T23:53:57.082Z,20.52
2018-11-07T23:56:24.948Z,20.77
2018-11-07T23:58:52.540Z,20.88
